sensor_id;sensor_type;location;lat;lon;timestamp;pressure;altitude;pressure_sealevel;temperature;humidity
77263;BME280;66373;52.334;4.806;2023-10-13T00:01:56;100996.06;;;20.07;66.69
77263;BME280;66373;52.334;4.806;2023-10-13T00:04:24;101005.59;;;20.08;66.55
77263;BME280;66373;52.334;4.806;2023-10-13T00:06:52;101001.19;;;20.10;66.53
77263;BME280;66373;52.334;4.806;2023-10-13T00:09:19;100982.34;;;20.00;66.64
77263;BME280;66373;52.334;4.806;2023-10-13T00:11:50;101000.31;;;20.11;66.84
77263;BME280;66373;52.334;4.806;2023-10-13T00:14:18;100994.38;;;20.04;66.56
77263;BME280;66373;52.334;4.806;2023-10-13T00:16:47;100995.94;;;20.11;66.41
77263;BME280;66373;52.334;4.806;2023-10-13T00:19:31;100994.34;;;20.06;66.45
77263;BME280;66373;52.334;4.806;2023-10-13T00:22:05;100969.22;;;20.02;66.76
77263;BME280;66373;52.334;4.806;2023-10-13T00:24:43;100983.09;;;20.04;66.86
77263;BME280;66373;52.334;4.806;2023-10-13T00:27:12;100980.31;;;20.10;66.75
77263;BME280;66373;52.334;4.806;2023-10-13T00:29:55;100916.03;;;19.75;66.41
77263;BME280;66373;52.334;4.806;2023-10-13T00:32:36;100950.94;;;20.02;66.53
77263;BME280;66373;52.334;4.806;2023-10-13T00:35:08;100972.47;;;20.10;66.45
77263;BME280;66373;52.334;4.806;2023-10-13T00:37:37;100969.88;;;20.10;66.69
77263;BME280;66373;52.334;4.806;2023-10-13T00:40:10;100945.72;;;20.02;66.85
77263;BME280;66373;52.334;4.806;2023-10-13T00:42:52;100888.41;;;19.66;66.76
77263;BME280;66373;52.334;4.806;2023-10-13T00:45:20;100940.47;;;20.02;66.51
77263;BME280;66373;52.334;4.806;2023-10-13T00:47:47;100943.84;;;20.07;66.83
77263;BME280;66373;52.334;4.806;2023-10-13T00:50:24;100933.59;;;20.01;66.93
77263;BME280;66373;52.334;4.806;2023-10-13T00:52:50;100930.97;;;20.01;66.63
77263;BME280;66373;52.334;4.806;2023-10-13T00:55:19;100928.25;;;20.04;66.77
77263;BME280;66373;52.334;4.806;2023-10-13T00:57:51;100901.88;;;19.82;66.88
77263;BME280;66373;52.334;4.806;2023-10-13T01:00:22;100917.25;;;19.92;66.98
77263;BME280;66373;52.334;4.806;2023-10-13T01:02:53;100887.31;;;19.75;66.55
77263;BME280;66373;52.334;4.806;2023-10-13T01:05:23;100937.66;;;20.09;66.76
77263;BME280;66373;52.334;4.806;2023-10-13T01:07:51;100928.09;;;20.10;66.95
77263;BME280;66373;52.334;4.806;2023-10-13T01:10:20;100887.00;;;19.85;66.75
77263;BME280;66373;52.334;4.806;2023-10-13T01:12:46;100899.72;;;19.97;66.84
77263;BME280;66373;52.334;4.806;2023-10-13T01:15:13;100886.84;;;19.91;66.64
77263;BME280;66373;52.334;4.806;2023-10-13T01:17:46;100897.03;;;20.01;66.40
77263;BME280;66373;52.334;4.806;2023-10-13T01:20:12;100898.72;;;20.02;66.92
77263;BME280;66373;52.334;4.806;2023-10-13T01:22:47;100850.81;;;19.73;66.65
77263;BME280;66373;52.334;4.806;2023-10-13T01:25:24;100900.41;;;20.03;66.62
77263;BME280;66373;52.334;4.806;2023-10-13T01:27:53;100828.50;;;19.61;66.73
77263;BME280;66373;52.334;4.806;2023-10-13T01:30:20;100907.19;;;20.10;66.76
77263;BME280;66373;52.334;4.806;2023-10-13T01:32:51;100896.00;;;20.05;66.89
77263;BME280;66373;52.334;4.806;2023-10-13T01:35:19;100896.75;;;20.10;66.81
77263;BME280;66373;52.334;4.806;2023-10-13T01:37:51;100849.72;;;19.80;66.71
77263;BME280;66373;52.334;4.806;2023-10-13T01:40:17;100891.53;;;20.10;66.70
77263;BME280;66373;52.334;4.806;2023-10-13T01:42:47;100868.50;;;19.93;66.61
77263;BME280;66373;52.334;4.806;2023-10-13T01:45:20;100885.66;;;20.02;66.86
77263;BME280;66373;52.334;4.806;2023-10-13T01:47:54;100883.78;;;20.07;66.73
77263;BME280;66373;52.334;4.806;2023-10-13T01:50:21;100880.34;;;20.05;66.73
77263;BME280;66373;52.334;4.806;2023-10-13T01:52:54;100837.56;;;19.79;66.79
77263;BME280;66373;52.334;4.806;2023-10-13T01:55:31;100867.44;;;20.00;66.64
77263;BME280;66373;52.334;4.806;2023-10-13T01:58:11;100829.59;;;19.84;66.56
77263;BME280;66373;52.334;4.806;2023-10-13T02:00:41;100862.16;;;20.02;66.61
77263;BME280;66373;52.334;4.806;2023-10-13T02:03:09;100842.38;;;19.94;66.85
77263;BME280;66373;52.334;4.806;2023-10-13T02:05:42;100843.88;;;20.02;66.53
77263;BME280;66373;52.334;4.806;2023-10-13T02:08:13;100861.97;;;20.08;66.65
77263;BME280;66373;52.334;4.806;2023-10-13T02:10:45;100843.94;;;20.00;66.84
77263;BME280;66373;52.334;4.806;2023-10-13T02:13:15;100780.56;;;19.65;66.66
77263;BME280;66373;52.334;4.806;2023-10-13T02:15:43;100784.75;;;19.71;66.59
77263;BME280;66373;52.334;4.806;2023-10-13T02:18:13;100830.91;;;20.00;66.82
77263;BME280;66373;52.334;4.806;2023-10-13T02:20:47;100836.97;;;20.01;66.58
77263;BME280;66373;52.334;4.806;2023-10-13T02:23:21;100829.91;;;20.03;66.83
77263;BME280;66373;52.334;4.806;2023-10-13T02:25:47;100789.69;;;19.80;66.63
77263;BME280;66373;52.334;4.806;2023-10-13T02:28:20;100808.25;;;20.01;66.69
77263;BME280;66373;52.334;4.806;2023-10-13T02:30:54;100756.84;;;19.73;66.90
77263;BME280;66373;52.334;4.806;2023-10-13T02:33:23;100809.75;;;20.08;66.64
77263;BME280;66373;52.334;4.806;2023-10-13T02:35:57;100793.53;;;19.98;66.71
77263;BME280;66373;52.334;4.806;2023-10-13T02:38:25;100759.31;;;19.78;66.51
77263;BME280;66373;52.334;4.806;2023-10-13T02:40:59;100785.66;;;19.99;66.67
77263;BME280;66373;52.334;4.806;2023-10-13T02:43:34;100778.59;;;20.02;66.91
77263;BME280;66373;52.334;4.806;2023-10-13T02:46:00;100783.03;;;19.99;66.80
77263;BME280;66373;52.334;4.806;2023-10-13T02:48:28;100783.72;;;20.05;66.91
77263;BME280;66373;52.334;4.806;2023-10-13T02:51:04;100756.94;;;19.99;66.69
77263;BME280;66373;52.334;4.806;2023-10-13T02:53:41;100769.88;;;20.03;66.71
77263;BME280;66373;52.334;4.806;2023-10-13T02:56:07;100701.31;;;19.68;66.64
77263;BME280;66373;52.334;4.806;2023-10-13T02:58:40;100672.88;;;19.59;66.70
77263;BME280;66373;52.334;4.806;2023-10-13T03:01:11;100737.88;;;19.96;66.60
77263;BME280;66373;52.334;4.806;2023-10-13T03:03:45;100751.44;;;20.07;66.88
77263;BME280;66373;52.334;4.806;2023-10-13T03:06:16;100671.72;;;19.69;66.54
77263;BME280;66373;52.334;4.806;2023-10-13T03:08:47;100724.69;;;20.01;66.69
77263;BME280;66373;52.334;4.806;2023-10-13T03:11:14;100714.91;;;20.07;66.43
77263;BME280;66373;52.334;4.806;2023-10-13T03:13:49;100625.06;;;19.58;66.48
77263;BME280;66373;52.334;4.806;2023-10-13T03:16:18;100698.59;;;20.01;66.87
77263;BME280;66373;52.334;4.806;2023-10-13T03:18:47;100683.00;;;19.97;66.84
77263;BME280;66373;52.334;4.806;2023-10-13T03:21:22;100685.53;;;20.01;66.52
77263;BME280;66373;52.334;4.806;2023-10-13T03:23:56;100680.34;;;19.99;66.65
77263;BME280;66373;52.334;4.806;2023-10-13T03:26:32;100641.91;;;19.76;66.78
77263;BME280;66373;52.334;4.806;2023-10-13T03:29:03;100672.56;;;19.97;66.62
77263;BME280;66373;52.334;4.806;2023-10-13T03:31:35;100605.59;;;19.70;66.81
77263;BME280;66373;52.334;4.806;2023-10-13T03:34:05;100641.16;;;20.01;66.43
77263;BME280;66373;52.334;4.806;2023-10-13T03:36:35;100616.56;;;19.80;66.57
77263;BME280;66373;52.334;4.806;2023-10-13T03:39:17;100638.69;;;19.96;66.55
77263;BME280;66373;52.334;4.806;2023-10-13T03:41:44;100641.81;;;20.06;66.62
77263;BME280;66373;52.334;4.806;2023-10-13T03:44:20;100574.41;;;19.65;66.60
77263;BME280;66373;52.334;4.806;2023-10-13T03:46:48;100533.00;;;19.55;66.46
77263;BME280;66373;52.334;4.806;2023-10-13T03:49:19;100566.16;;;19.78;66.52
77263;BME280;66373;52.334;4.806;2023-10-13T03:51:48;100608.09;;;19.99;66.69
77263;BME280;66373;52.334;4.806;2023-10-13T03:54:19;100600.94;;;20.05;66.78
77263;BME280;66373;52.334;4.806;2023-10-13T03:56:46;100578.72;;;19.93;66.48
77263;BME280;66373;52.334;4.806;2023-10-13T03:59:17;100592.31;;;20.03;66.48
77263;BME280;66373;52.334;4.806;2023-10-13T04:01:47;100578.69;;;19.94;66.68
77263;BME280;66373;52.334;4.806;2023-10-13T04:04:24;100587.31;;;19.96;66.80
77263;BME280;66373;52.334;4.806;2023-10-13T04:07:00;100576.78;;;19.99;66.69
77263;BME280;66373;52.334;4.806;2023-10-13T04:09:46;100568.34;;;19.91;66.69
77263;BME280;66373;52.334;4.806;2023-10-13T04:12:31;100535.94;;;19.72;66.63
77263;BME280;66373;52.334;4.806;2023-10-13T04:15:16;100543.38;;;19.83;66.79
77263;BME280;66373;52.334;4.806;2023-10-13T04:17:48;100562.81;;;20.01;66.87
77263;BME280;66373;52.334;4.806;2023-10-13T04:20:16;100561.88;;;20.02;66.97
77263;BME280;66373;52.334;4.806;2023-10-13T04:22:58;100511.41;;;19.76;67.17
77263;BME280;66373;52.334;4.806;2023-10-13T04:25:52;100490.00;;;19.67;66.83
77263;BME280;66373;52.334;4.806;2023-10-13T04:28:33;100481.06;;;19.74;66.82
77263;BME280;66373;52.334;4.806;2023-10-13T04:31:03;100463.25;;;19.60;67.16
77263;BME280;66373;52.334;4.806;2023-10-13T04:33:48;100473.41;;;19.69;66.75
77263;BME280;66373;52.334;4.806;2023-10-13T04:36:21;100514.41;;;19.90;66.93
77263;BME280;66373;52.334;4.806;2023-10-13T04:39:02;100530.50;;;20.03;67.10
77263;BME280;66373;52.334;4.806;2023-10-13T04:41:37;100531.41;;;20.02;67.12
77263;BME280;66373;52.334;4.806;2023-10-13T04:44:05;100486.91;;;19.80;67.32
77263;BME280;66373;52.334;4.806;2023-10-13T04:46:46;100504.72;;;19.94;66.78
77263;BME280;66373;52.334;4.806;2023-10-13T04:49:39;100457.50;;;19.75;67.13
77263;BME280;66373;52.334;4.806;2023-10-13T04:52:16;100476.38;;;19.83;67.28
77263;BME280;66373;52.334;4.806;2023-10-13T04:55:06;100489.88;;;19.96;67.34
77263;BME280;66373;52.334;4.806;2023-10-13T04:58:09;100410.41;;;19.53;67.62
77263;BME280;66373;52.334;4.806;2023-10-13T05:01:02;100470.84;;;19.92;67.76
77263;BME280;66373;52.334;4.806;2023-10-13T05:04:09;100429.94;;;19.68;67.41
77263;BME280;66373;52.334;4.806;2023-10-13T05:06:49;100455.38;;;19.86;67.64
77263;BME280;66373;52.334;4.806;2023-10-13T05:09:33;100463.91;;;19.91;67.55
77263;BME280;66373;52.334;4.806;2023-10-13T05:12:18;100468.94;;;19.97;67.56
77263;BME280;66373;52.334;4.806;2023-10-13T05:15:03;100452.94;;;19.82;67.79
77263;BME280;66373;52.334;4.806;2023-10-13T05:17:48;100488.16;;;19.95;67.56
77263;BME280;66373;52.334;4.806;2023-10-13T05:20:34;100448.91;;;19.73;67.36
77263;BME280;66373;52.334;4.806;2023-10-13T05:23:22;100487.09;;;20.01;67.59
77263;BME280;66373;52.334;4.806;2023-10-13T05:26:07;100476.72;;;19.99;67.89
77263;BME280;66373;52.334;4.806;2023-10-13T05:28:51;100445.97;;;19.82;67.41
77263;BME280;66373;52.334;4.806;2023-10-13T05:31:35;100435.84;;;19.73;67.48
77263;BME280;66373;52.334;4.806;2023-10-13T05:34:20;100413.56;;;19.63;67.32
77263;BME280;66373;52.334;4.806;2023-10-13T05:37:01;100392.00;;;19.58;67.40
77263;BME280;66373;52.334;4.806;2023-10-13T05:39:47;100431.41;;;19.75;67.31
77263;BME280;66373;52.334;4.806;2023-10-13T05:42:28;100479.28;;;20.01;67.59
77263;BME280;66373;52.334;4.806;2023-10-13T05:45:13;100431.94;;;19.85;67.98
77263;BME280;66373;52.334;4.806;2023-10-13T05:48:23;100415.88;;;19.72;67.64
77263;BME280;66373;52.334;4.806;2023-10-13T05:51:07;100376.16;;;19.64;67.73
77263;BME280;66373;52.334;4.806;2023-10-13T05:53:52;100434.94;;;19.99;67.81
77263;BME280;66373;52.334;4.806;2023-10-13T05:56:38;100415.22;;;19.90;67.57
77263;BME280;66373;52.334;4.806;2023-10-13T05:59:22;100420.28;;;19.95;67.35
77263;BME280;66373;52.334;4.806;2023-10-13T06:02:07;100367.53;;;19.62;67.48
77263;BME280;66373;52.334;4.806;2023-10-13T06:04:51;100423.84;;;19.92;67.58
77263;BME280;66373;52.334;4.806;2023-10-13T06:07:36;100416.94;;;19.91;67.57
77263;BME280;66373;52.334;4.806;2023-10-13T06:10:21;100425.34;;;19.99;67.47
77263;BME280;66373;52.334;4.806;2023-10-13T06:13:07;100392.94;;;19.80;67.19
77263;BME280;66373;52.334;4.806;2023-10-13T06:15:51;100395.34;;;19.86;67.58
77263;BME280;66373;52.334;4.806;2023-10-13T06:18:36;100404.63;;;19.95;67.37
77263;BME280;66373;52.334;4.806;2023-10-13T06:21:21;100383.22;;;19.85;67.25
77263;BME280;66373;52.334;4.806;2023-10-13T06:24:06;100404.47;;;19.99;67.73
77263;BME280;66373;52.334;4.806;2023-10-13T06:26:51;100403.63;;;19.99;67.28
77263;BME280;66373;52.334;4.806;2023-10-13T06:29:37;100365.34;;;19.75;67.56
77263;BME280;66373;52.334;4.806;2023-10-13T06:32:04;100351.75;;;19.65;67.28
77263;BME280;66373;52.334;4.806;2023-10-13T06:34:37;100407.13;;;19.98;67.38
77263;BME280;66373;52.334;4.806;2023-10-13T06:37:10;100394.13;;;19.96;67.28
77263;BME280;66373;52.334;4.806;2023-10-13T06:39:49;100332.81;;;19.60;67.40
77263;BME280;66373;52.334;4.806;2023-10-13T06:42:16;100358.22;;;19.78;67.34
77263;BME280;66373;52.334;4.806;2023-10-13T06:44:47;100388.00;;;19.97;67.25
77263;BME280;66373;52.334;4.806;2023-10-13T06:47:14;100381.34;;;19.89;67.43
77263;BME280;66373;52.334;4.806;2023-10-13T06:49:41;100365.56;;;19.92;67.23
77263;BME280;66373;52.334;4.806;2023-10-13T06:52:09;100373.47;;;19.90;67.21
77263;BME280;66373;52.334;4.806;2023-10-13T06:54:36;100373.34;;;19.93;67.47
77263;BME280;66373;52.334;4.806;2023-10-13T06:57:05;100353.44;;;19.91;67.53
77263;BME280;66373;52.334;4.806;2023-10-13T06:59:33;100365.53;;;19.93;67.25
77263;BME280;66373;52.334;4.806;2023-10-13T07:02:03;100364.72;;;19.91;67.91
77263;BME280;66373;52.334;4.806;2023-10-13T07:04:31;100369.72;;;19.97;67.51
77263;BME280;66373;52.334;4.806;2023-10-13T07:06:58;100361.03;;;19.97;67.68
77263;BME280;66373;52.334;4.806;2023-10-13T07:09:26;100307.28;;;19.68;67.30
77263;BME280;66373;52.334;4.806;2023-10-13T07:12:15;100343.72;;;19.94;67.53
77263;BME280;66373;52.334;4.806;2023-10-13T07:14:49;100304.22;;;19.57;67.67
77263;BME280;66373;52.334;4.806;2023-10-13T07:17:20;100338.41;;;19.97;67.33
77263;BME280;66373;52.334;4.806;2023-10-13T07:19:55;100357.59;;;19.96;67.49
77263;BME280;66373;52.334;4.806;2023-10-13T07:22:32;100340.16;;;19.97;67.48
77263;BME280;66373;52.334;4.806;2023-10-13T07:25:06;100335.00;;;19.95;67.39
77263;BME280;66373;52.334;4.806;2023-10-13T07:27:33;100312.50;;;19.91;67.43
77263;BME280;66373;52.334;4.806;2023-10-13T07:30:02;100326.25;;;19.96;67.35
77263;BME280;66373;52.334;4.806;2023-10-13T07:32:40;100300.25;;;19.93;67.56
77263;BME280;66373;52.334;4.806;2023-10-13T07:35:11;100294.25;;;19.91;67.18
77263;BME280;66373;52.334;4.806;2023-10-13T07:37:39;100307.13;;;19.96;67.66
77263;BME280;66373;52.334;4.806;2023-10-13T07:40:08;100310.59;;;19.96;67.20
77263;BME280;66373;52.334;4.806;2023-10-13T07:42:56;100311.44;;;19.97;67.21
77263;BME280;66373;52.334;4.806;2023-10-13T07:45:26;100242.69;;;19.50;67.49
77263;BME280;66373;52.334;4.806;2023-10-13T07:48:03;100306.22;;;19.97;67.51
77263;BME280;66373;52.334;4.806;2023-10-13T07:50:38;100302.75;;;19.96;67.28
77263;BME280;66373;52.334;4.806;2023-10-13T07:53:06;100292.44;;;19.93;67.28
77263;BME280;66373;52.334;4.806;2023-10-13T07:55:45;100301.84;;;19.97;67.46
77263;BME280;66373;52.334;4.806;2023-10-13T07:58:14;100284.09;;;19.84;67.70
77263;BME280;66373;52.334;4.806;2023-10-13T08:00:41;100295.16;;;19.90;67.47
77263;BME280;66373;52.334;4.806;2023-10-13T08:03:20;100292.25;;;19.98;67.29
77263;BME280;66373;52.334;4.806;2023-10-13T08:06:11;100273.38;;;19.91;67.33
77263;BME280;66373;52.334;4.806;2023-10-13T08:08:51;100276.78;;;19.93;67.45
77263;BME280;66373;52.334;4.806;2023-10-13T08:11:21;100258.94;;;19.81;67.26
77263;BME280;66373;52.334;4.806;2023-10-13T08:13:58;100259.56;;;19.88;67.63
77263;BME280;66373;52.334;4.806;2023-10-13T08:16:33;100242.50;;;19.79;67.50
77263;BME280;66373;52.334;4.806;2023-10-13T08:19:20;100233.81;;;19.79;67.55
77263;BME280;66373;52.334;4.806;2023-10-13T08:21:53;100265.53;;;19.91;67.94
77263;BME280;66373;52.334;4.806;2023-10-13T08:24:23;100265.31;;;19.97;69.03
77263;BME280;66373;52.334;4.806;2023-10-13T08:26:54;100267.72;;;20.02;69.11
77263;BME280;66373;52.334;4.806;2023-10-13T08:29:44;100233.41;;;19.89;68.27
77263;BME280;66373;52.334;4.806;2023-10-13T08:32:34;100244.16;;;20.04;67.89
77263;BME280;66373;52.334;4.806;2023-10-13T08:35:21;100227.00;;;19.98;68.00
77263;BME280;66373;52.334;4.806;2023-10-13T08:38:01;100232.16;;;19.99;67.59
77263;BME280;66373;52.334;4.806;2023-10-13T08:40:43;100225.59;;;19.89;67.82
77263;BME280;66373;52.334;4.806;2023-10-13T08:43:42;100222.19;;;19.87;67.90
77263;BME280;66373;52.334;4.806;2023-10-13T08:46:12;100247.81;;;19.99;67.51
77263;BME280;66373;52.334;4.806;2023-10-13T08:48:55;100248.69;;;20.00;67.77
77263;BME280;66373;52.334;4.806;2023-10-13T08:51:43;100194.97;;;19.71;67.71
77263;BME280;66373;52.334;4.806;2023-10-13T08:54:14;100228.75;;;19.97;67.98
77263;BME280;66373;52.334;4.806;2023-10-13T08:57:00;100162.41;;;19.58;68.02
77263;BME280;66373;52.334;4.806;2023-10-13T08:59:46;100220.13;;;19.95;67.84
77263;BME280;66373;52.334;4.806;2023-10-13T09:02:21;100210.09;;;19.85;68.05
77263;BME280;66373;52.334;4.806;2023-10-13T09:05:09;100169.00;;;19.68;68.18
77263;BME280;66373;52.334;4.806;2023-10-13T09:07:57;100186.72;;;19.82;67.69
77263;BME280;66373;52.334;4.806;2023-10-13T09:10:35;100211.28;;;19.99;67.78
77263;BME280;66373;52.334;4.806;2023-10-13T09:13:10;100145.56;;;19.67;67.67
77263;BME280;66373;52.334;4.806;2023-10-13T09:15:44;100156.75;;;19.70;68.14
77263;BME280;66373;52.334;4.806;2023-10-13T09:18:26;100151.41;;;19.73;67.85
77263;BME280;66373;52.334;4.806;2023-10-13T09:21:13;100151.63;;;19.67;67.90
77263;BME280;66373;52.334;4.806;2023-10-13T09:24:13;100156.63;;;19.73;67.98
77263;BME280;66373;52.334;4.806;2023-10-13T09:26:47;100178.47;;;19.92;68.08
77263;BME280;66373;52.334;4.806;2023-10-13T09:29:19;100080.44;;;19.42;68.02
77263;BME280;66373;52.334;4.806;2023-10-13T09:31:59;100130.47;;;19.75;68.05
77263;BME280;66373;52.334;4.806;2023-10-13T09:34:27;100145.81;;;19.82;67.58
77263;BME280;66373;52.334;4.806;2023-10-13T09:36:57;100152.38;;;19.92;67.60
77263;BME280;66373;52.334;4.806;2023-10-13T09:39:26;100138.78;;;19.84;67.60
77263;BME280;66373;52.334;4.806;2023-10-13T09:41:56;100149.66;;;19.95;67.98
77263;BME280;66373;52.334;4.806;2023-10-13T09:44:23;100112.34;;;19.72;68.05
77263;BME280;66373;52.334;4.806;2023-10-13T09:46:50;100120.22;;;19.70;67.95
77263;BME280;66373;52.334;4.806;2023-10-13T09:49:22;100119.03;;;19.77;68.20
77263;BME280;66373;52.334;4.806;2023-10-13T09:52:13;100133.38;;;19.89;67.78
77263;BME280;66373;52.334;4.806;2023-10-13T09:54:53;100132.16;;;19.97;67.90
77263;BME280;66373;52.334;4.806;2023-10-13T09:57:29;100088.06;;;19.70;67.86
77263;BME280;66373;52.334;4.806;2023-10-13T10:00:10;100143.47;;;19.98;67.95
77263;BME280;66373;52.334;4.806;2023-10-13T10:02:55;100158.66;;;20.09;67.88
77263;BME280;66373;52.334;4.806;2023-10-13T10:05:30;100139.72;;;20.04;67.63
77263;BME280;66373;52.334;4.806;2023-10-13T10:08:00;100145.75;;;20.06;67.87
77263;BME280;66373;52.334;4.806;2023-10-13T10:10:44;100141.44;;;20.05;67.58
77263;BME280;66373;52.334;4.806;2023-10-13T10:13:18;100154.25;;;20.11;67.86
77263;BME280;66373;52.334;4.806;2023-10-13T10:15:51;100085.25;;;19.74;67.62
77263;BME280;66373;52.334;4.806;2023-10-13T10:18:20;100136.09;;;20.08;67.70
77263;BME280;66373;52.334;4.806;2023-10-13T10:20:48;100129.03;;;20.10;67.48
77263;BME280;66373;52.334;4.806;2023-10-13T10:23:25;100110.44;;;19.97;67.59
77263;BME280;66373;52.334;4.806;2023-10-13T10:25:54;100108.00;;;19.92;67.75
77263;BME280;66373;52.334;4.806;2023-10-13T10:28:38;100123.81;;;20.10;67.99
77263;BME280;66373;52.334;4.806;2023-10-13T10:31:08;100106.19;;;19.94;67.76
77263;BME280;66373;52.334;4.806;2023-10-13T10:33:39;100101.63;;;19.99;67.84
77263;BME280;66373;52.334;4.806;2023-10-13T10:36:07;100075.28;;;19.84;67.71
77263;BME280;66373;52.334;4.806;2023-10-13T10:38:52;100130.38;;;20.20;67.82
77263;BME280;66373;52.334;4.806;2023-10-13T10:41:27;100114.53;;;20.03;67.73
77263;BME280;66373;52.334;4.806;2023-10-13T10:44:10;100099.53;;;20.08;67.65
77263;BME280;66373;52.334;4.806;2023-10-13T10:46:42;100090.66;;;20.12;67.54
77263;BME280;66373;52.334;4.806;2023-10-13T10:49:18;100064.53;;;19.91;67.69
77263;BME280;66373;52.334;4.806;2023-10-13T10:51:58;100084.59;;;20.11;67.80
77263;BME280;66373;52.334;4.806;2023-10-13T10:54:30;100111.06;;;20.24;67.77
77263;BME280;66373;52.334;4.806;2023-10-13T10:57:00;100075.13;;;20.09;67.86
77263;BME280;66373;52.334;4.806;2023-10-13T10:59:41;100064.94;;;20.03;67.62
77263;BME280;66373;52.334;4.806;2023-10-13T11:02:08;100099.78;;;20.23;67.46
77263;BME280;66373;52.334;4.806;2023-10-13T11:04:41;100079.19;;;20.16;67.73
77263;BME280;66373;52.334;4.806;2023-10-13T11:07:21;100085.06;;;20.21;67.84
77263;BME280;66373;52.334;4.806;2023-10-13T11:09:49;100056.84;;;20.09;67.98
77263;BME280;66373;52.334;4.806;2023-10-13T11:12:20;100024.59;;;19.89;67.89
77263;BME280;66373;52.334;4.806;2023-10-13T11:15:02;100077.25;;;20.21;67.93
77263;BME280;66373;52.334;4.806;2023-10-13T11:17:38;100052.94;;;20.19;67.55
77263;BME280;66373;52.334;4.806;2023-10-13T11:20:09;100060.53;;;20.25;67.73
77263;BME280;66373;52.334;4.806;2023-10-13T11:22:46;99993.72;;;19.79;67.73
77263;BME280;66373;52.334;4.806;2023-10-13T11:25:23;100066.50;;;20.27;67.91
77263;BME280;66373;52.334;4.806;2023-10-13T11:27:57;100031.72;;;20.06;68.04
77263;BME280;66373;52.334;4.806;2023-10-13T11:30:26;100065.75;;;20.25;67.94
77263;BME280;66373;52.334;4.806;2023-10-13T11:33:08;100060.78;;;20.19;68.18
77263;BME280;66373;52.334;4.806;2023-10-13T11:35:37;100052.03;;;20.20;67.52
77263;BME280;66373;52.334;4.806;2023-10-13T11:38:22;100055.16;;;20.28;67.53
77263;BME280;66373;52.334;4.806;2023-10-13T11:40:56;100060.53;;;20.25;67.93
77263;BME280;66373;52.334;4.806;2023-10-13T11:43:43;100057.50;;;20.14;67.70
77263;BME280;66373;52.334;4.806;2023-10-13T11:46:31;100049.16;;;20.26;67.68
77263;BME280;66373;52.334;4.806;2023-10-13T11:49:15;100060.31;;;20.29;68.02
77263;BME280;66373;52.334;4.806;2023-10-13T11:51:57;100036.38;;;20.20;67.89
77263;BME280;66373;52.334;4.806;2023-10-13T11:54:34;100041.72;;;20.17;67.72
77263;BME280;66373;52.334;4.806;2023-10-13T11:57:07;100031.41;;;20.14;67.61
77263;BME280;66373;52.334;4.806;2023-10-13T11:59:36;100048.22;;;20.27;67.99
77263;BME280;66373;52.334;4.806;2023-10-13T12:02:13;100055.94;;;20.30;67.73
77263;BME280;66373;52.334;4.806;2023-10-13T12:04:58;100019.91;;;19.97;67.95
77263;BME280;66373;52.334;4.806;2023-10-13T12:07:25;100047.78;;;20.17;67.88
77263;BME280;66373;52.334;4.806;2023-10-13T12:10:20;99986.69;;;19.81;67.97
77263;BME280;66373;52.334;4.806;2023-10-13T12:13:15;100070.69;;;20.31;67.68
77263;BME280;66373;52.334;4.806;2023-10-13T12:15:43;100003.47;;;19.95;67.77
77263;BME280;66373;52.334;4.806;2023-10-13T12:18:18;100009.59;;;19.94;68.21
77263;BME280;66373;52.334;4.806;2023-10-13T12:20:48;99948.38;;;19.61;67.62
77263;BME280;66373;52.334;4.806;2023-10-13T12:23:15;100046.41;;;20.29;67.75
77263;BME280;66373;52.334;4.806;2023-10-13T12:25:47;99929.22;;;19.62;67.84
77263;BME280;66373;52.334;4.806;2023-10-13T12:28:32;100059.25;;;20.33;68.10
77263;BME280;66373;52.334;4.806;2023-10-13T12:31:06;99931.69;;;19.65;67.97
77263;BME280;66373;52.334;4.806;2023-10-13T12:33:37;100035.16;;;20.27;67.83
77263;BME280;66373;52.334;4.806;2023-10-13T12:36:06;100040.13;;;20.33;67.81
77263;BME280;66373;52.334;4.806;2023-10-13T12:38:35;100051.44;;;20.33;68.06
77263;BME280;66373;52.334;4.806;2023-10-13T12:41:39;100034.00;;;20.34;67.82
77263;BME280;66373;52.334;4.806;2023-10-13T12:44:24;99875.72;;;19.52;68.01
77263;BME280;66373;52.334;4.806;2023-10-13T12:47:10;99993.16;;;20.13;67.72
77263;BME280;66373;52.334;4.806;2023-10-13T12:49:55;99969.41;;;19.98;67.98
77263;BME280;66373;52.334;4.806;2023-10-13T12:52:33;99936.25;;;19.80;67.88
77263;BME280;66373;52.334;4.806;2023-10-13T12:55:02;99904.16;;;19.58;68.04
77263;BME280;66373;52.334;4.806;2023-10-13T12:57:37;99916.69;;;19.70;68.12
77263;BME280;66373;52.334;4.806;2023-10-13T13:00:11;99990.72;;;20.08;68.01
77263;BME280;66373;52.334;4.806;2023-10-13T13:02:50;99966.25;;;19.90;68.01
77263;BME280;66373;52.334;4.806;2023-10-13T13:05:22;99944.00;;;19.82;68.08
77263;BME280;66373;52.334;4.806;2023-10-13T13:07:54;99888.19;;;19.65;67.83
77263;BME280;66373;52.334;4.806;2023-10-13T13:10:22;99943.56;;;19.92;67.78
77263;BME280;66373;52.334;4.806;2023-10-13T13:13:03;100013.88;;;20.36;68.07
77263;BME280;66373;52.334;4.806;2023-10-13T13:15:31;99952.25;;;19.93;67.84
77263;BME280;66373;52.334;4.806;2023-10-13T13:17:58;99925.16;;;19.75;68.20
77263;BME280;66373;52.334;4.806;2023-10-13T13:20:36;100013.22;;;20.31;68.05
77263;BME280;66373;52.334;4.806;2023-10-13T13:23:05;99954.25;;;19.86;68.02
77263;BME280;66373;52.334;4.806;2023-10-13T13:25:33;99960.91;;;19.93;67.91
77263;BME280;66373;52.334;4.806;2023-10-13T13:28:10;99912.44;;;19.68;67.98
77263;BME280;66373;52.334;4.806;2023-10-13T13:30:37;100002.91;;;20.28;68.16
77263;BME280;66373;52.334;4.806;2023-10-13T13:33:04;99953.03;;;19.95;68.29
77263;BME280;66373;52.334;4.806;2023-10-13T13:35:37;99963.78;;;20.08;68.28